Terminal Aerodrome Forecast
Issued by NWS Wakefield, VA

Home | Current Version | Previous Version | Text Only | Print | Product List | Glossary On
Versions: 1 2 3 4 5 6 7 8 9 10 11 12 13 14 15
000
FTUS41 KAKQ 310520
TAFORF
TAF
KORF 310520Z 3106/0106 25007KT P6SM SCT250
     FM311500 23014G24KT P6SM SCT150
     FM311900 22022G30KT P6SM SCT150
     FM312200 22015KT P6SM SCT150
     FM010300 29012KT P6SM SCT150=

USA.gov is the U.S. government's official web portal to all federal, state and local government web resources and services.